Time;durP1;ratioP1;P1;durP2;ratioP2;P2;SDS_P1;SDS_P2;PMS_P1;PMS_P2;Temp;Humidity;BMP_temperature;BMP_pressure;BME280_temperature;BME280_humidity;BME280_pressure;Samples;Min_cycle;Max_cycle;Signal;HPM_P1;HPM_P2
2023/02/20 00:01:26;;;;;;;2.97;1.90;;;5.80;99.90;;;;;;4981431;28;21015;-70
2023/02/20 00:03:54;;;;;;;3.60;2.23;;;5.80;99.90;;;;;;4979524;28;20480;-70
2023/02/20 00:06:23;;;;;;;4.63;2.30;;;5.80;99.90;;;;;;4973123;28;20635;-70
2023/02/20 00:08:51;;;;;;;3.63;2.50;;;5.80;99.90;;;;;;4978004;28;20489;-70
2023/02/20 00:11:19;;;;;;;3.77;2.40;;;5.80;99.90;;;;;;4980913;28;20553;-70
2023/02/20 00:13:48;;;;;;;3.70;2.40;;;5.80;99.90;;;;;;4974990;28;20473;-70
2023/02/20 00:16:16;;;;;;;3.00;2.20;;;5.80;99.90;;;;;;4983422;28;20497;-70
2023/02/20 00:18:44;;;;;;;4.37;3.17;;;5.80;99.90;;;;;;4986835;28;20481;-70
2023/02/20 00:21:13;;;;;;;4.40;2.47;;;5.90;99.90;;;;;;4988050;28;20488;-70
2023/02/20 00:23:42;;;;;;;3.97;2.40;;;5.90;99.90;;;;;;4987095;28;20999;-71
2023/02/20 00:26:11;;;;;;;5.10;3.00;;;5.80;99.90;;;;;;4984006;28;20827;-70
2023/02/20 00:28:40;;;;;;;3.10;2.30;;;5.90;99.90;;;;;;4986950;28;20840;-70
2023/02/20 00:31:11;;;;;;;4.10;2.70;;;5.80;99.90;;;;;;4989530;28;20469;-70
2023/02/20 00:33:39;;;;;;;3.80;2.43;;;5.80;99.90;;;;;;4987470;28;20488;-69
2023/02/20 00:36:08;;;;;;;5.20;2.43;;;5.80;99.90;;;;;;4987190;28;20501;-72
2023/02/20 00:38:36;;;;;;;4.10;2.70;;;5.80;99.90;;;;;;4987860;28;20520;-71
2023/02/20 00:41:06;;;;;;;3.40;2.20;;;5.80;99.90;;;;;;4983340;28;20493;-69
2023/02/20 00:43:35;;;;;;;4.73;2.30;;;5.80;99.90;;;;;;4988054;28;20501;-70
2023/02/20 00:46:03;;;;;;;4.80;2.50;;;5.80;99.90;;;;;;4980713;28;20489;-70
2023/02/20 00:48:31;;;;;;;3.23;2.50;;;5.80;99.90;;;;;;4989376;28;20480;-71
2023/02/20 00:50:59;;;;;;;5.53;2.60;;;5.80;99.90;;;;;;4990323;28;20494;-70
2023/02/20 00:53:27;;;;;;;3.93;2.67;;;5.80;99.90;;;;;;4985993;28;20984;-70
2023/02/20 00:55:55;;;;;;;2.50;2.30;;;5.80;99.90;;;;;;4980310;28;20983;-72
2023/02/20 00:58:24;;;;;;;3.63;2.43;;;5.80;99.90;;;;;;4988293;28;20477;-70
2023/02/20 01:00:52;;;;;;;4.17;2.47;;;5.80;99.90;;;;;;4987191;28;20498;-70
2023/02/20 01:03:20;;;;;;;3.80;2.77;;;5.90;99.90;;;;;;4990019;28;20971;-71
2023/02/20 01:05:48;;;;;;;3.50;2.93;;;5.90;99.90;;;;;;4990613;28;20478;-71
2023/02/20 01:08:16;;;;;;;4.10;2.43;;;5.90;99.90;;;;;;4991093;28;20994;-70
2023/02/20 01:10:44;;;;;;;4.70;2.50;;;5.90;99.90;;;;;;4986673;28;20508;-71
2023/02/20 01:13:12;;;;;;;4.73;2.70;;;5.90;99.90;;;;;;4969180;28;20963;-70
2023/02/20 01:15:41;;;;;;;3.50;2.60;;;5.90;99.90;;;;;;4973545;28;20473;-70
2023/02/20 01:18:09;;;;;;;4.27;2.60;;;5.90;99.90;;;;;;4977528;28;21041;-69
2023/02/20 01:20:37;;;;;;;4.53;2.67;;;5.90;99.90;;;;;;4977528;28;20509;-71
2023/02/20 01:23:05;;;;;;;4.40;2.43;;;5.90;99.90;;;;;;4976580;28;21054;-70
2023/02/20 01:25:33;;;;;;;4.97;2.67;;;6.00;99.90;;;;;;4982608;28;21225;-70
2023/02/20 01:28:01;;;;;;;3.77;2.80;;;6.00;99.90;;;;;;4977562;28;20473;-71
2023/02/20 01:30:29;;;;;;;4.17;2.33;;;6.00;99.90;;;;;;4981967;28;20496;-69
2023/02/20 01:32:58;;;;;;;2.93;2.70;;;6.00;99.90;;;;;;4976114;28;20467;-70
2023/02/20 01:35:30;;;;;;;2.60;2.40;;;6.00;99.90;;;;;;4980336;28;20488;-69
2023/02/20 01:37:59;;;;;;;3.10;2.73;;;6.10;99.90;;;;;;4981208;28;20489;-70
2023/02/20 01:40:27;;;;;;;3.97;2.60;;;6.10;99.90;;;;;;4986547;28;20500;-70
2023/02/20 01:42:55;;;;;;;4.90;2.80;;;6.10;99.90;;;;;;4978198;28;21019;-70
2023/02/20 01:45:34;;;;;;;4.80;2.63;;;6.10;99.90;;;;;;4979407;28;20473;-69
2023/02/20 01:48:04;;;;;;;5.70;3.50;;;6.10;99.90;;;;;;4974650;28;20484;-69
2023/02/20 01:50:36;;;;;;;2.77;2.57;;;6.10;99.90;;;;;;4975660;28;20508;-70
2023/02/20 01:53:09;;;;;;;3.03;2.73;;;6.10;99.90;;;;;;4979980;28;20481;-68
2023/02/20 01:55:42;;;;;;;7.43;2.90;;;6.10;99.90;;;;;;4981876;28;20936;-70
2023/02/20 01:58:14;;;;;;;4.27;2.77;;;6.10;99.90;;;;;;4969384;28;22491;-69
2023/02/20 02:00:43;;;;;;;4.43;3.03;;;6.10;99.90;;;;;;4975152;28;20504;-69
2023/02/20 02:03:15;;;;;;;4.03;2.63;;;6.20;99.90;;;;;;4973579;28;20500;-69
2023/02/20 02:05:48;;;;;;;3.10;2.70;;;6.20;99.90;;;;;;4978615;28;20478;-70
2023/02/20 02:08:19;;;;;;;3.17;2.87;;;6.20;99.90;;;;;;4983327;28;20964;-70
2023/02/20 02:10:53;;;;;;;3.33;2.90;;;6.20;99.90;;;;;;4985354;28;20942;-70
2023/02/20 02:13:21;;;;;;;3.87;3.03;;;6.20;99.90;;;;;;4977765;28;20469;-69
2023/02/20 02:15:52;;;;;;;5.23;2.87;;;6.20;99.90;;;;;;4976129;28;20484;-69
2023/02/20 02:18:38;;;;;;;4.70;3.43;;;6.20;99.90;;;;;;4986840;28;20478;-70
2023/02/20 02:21:48;;;;;;;3.50;3.20;;;6.30;99.90;;;;;;4985837;28;20978;-72
2023/02/20 02:24:39;;;;;;;8.33;4.17;;;6.30;99.90;;;;;;4974908;28;20473;-71
2023/02/20 02:27:43;;;;;;;5.50;3.20;;;6.30;99.90;;;;;;4961969;28;20493;-69
2023/02/20 02:30:56;;;;;;;3.50;2.97;;;6.30;99.90;;;;;;4981036;28;20493;-69
2023/02/20 02:33:44;;;;;;;4.67;3.40;;;6.40;99.90;;;;;;4983473;28;20556;-69
2023/02/20 02:36:38;;;;;;;4.20;3.50;;;6.40;99.90;;;;;;4979082;28;20488;-70
2023/02/20 02:39:16;;;;;;;3.67;3.37;;;6.40;99.90;;;;;;4975541;28;20591;-71
2023/02/20 02:41:52;;;;;;;4.80;3.50;;;6.40;99.90;;;;;;4984831;28;20473;-70
2023/02/20 02:44:26;;;;;;;4.10;3.70;;;6.40;99.90;;;;;;4982200;28;22134;-71
2023/02/20 02:46:58;;;;;;;4.10;3.80;;;6.40;99.90;;;;;;4976704;28;20485;-69
2023/02/20 02:49:34;;;;;;;4.53;3.43;;;6.50;99.90;;;;;;4981305;28;20488;-71
2023/02/20 02:52:05;;;;;;;5.47;4.07;;;6.40;99.90;;;;;;4979868;28;20465;-72
2023/02/20 02:54:33;;;;;;;5.87;4.33;;;6.50;99.90;;;;;;4970879;28;21562;-70
2023/02/20 02:57:21;;;;;;;5.73;3.97;;;6.50;99.90;;;;;;4969314;28;20500;-69
2023/02/20 02:59:53;;;;;;;4.80;4.30;;;6.50;99.90;;;;;;4968511;28;20871;-70
2023/02/20 03:02:22;;;;;;;5.43;4.93;;;6.50;99.90;;;;;;4981984;28;20493;-69
2023/02/20 03:04:53;;;;;;;7.10;4.80;;;6.50;99.90;;;;;;4972750;28;20479;-69
2023/02/20 03:07:25;;;;;;;5.17;4.53;;;6.50;99.90;;;;;;4978799;28;20493;-70
2023/02/20 03:09:57;;;;;;;6.87;4.50;;;6.50;99.90;;;;;;4975496;28;20492;-70
2023/02/20 03:12:27;;;;;;;6.80;4.50;;;6.50;99.90;;;;;;4970299;28;20484;-71
2023/02/20 03:17:52;;;;;;;6.03;4.57;;;6.50;99.90;;;;;;4972998;28;20493;-69
2023/02/20 03:20:22;;;;;;;5.87;4.67;;;6.50;99.90;;;;;;4977246;28;20861;-72
2023/02/20 03:22:55;;;;;;;5.60;4.70;;;6.50;99.90;;;;;;4983753;28;20981;-70
2023/02/20 03:25:26;;;;;;;5.27;4.77;;;6.50;99.90;;;;;;4976747;28;20468;-69
2023/02/20 03:27:58;;;;;;;6.43;4.80;;;6.50;99.90;;;;;;4974497;28;20485;-69
2023/02/20 03:30:31;;;;;;;6.63;6.03;;;6.60;99.90;;;;;;4975064;28;20862;-69
2023/02/20 03:44:24;;;;;;;6.63;5.20;;;6.60;99.90;;;;;;4965531;28;20469;-71
2023/02/20 03:46:54;;;;;;;6.73;5.33;;;6.60;99.90;;;;;;4970044;28;21024;-71
2023/02/20 03:49:27;;;;;;;6.77;5.23;;;6.60;99.90;;;;;;4974503;28;20925;-70
2023/02/20 03:51:58;;;;;;;6.00;5.00;;;6.60;99.90;;;;;;4977905;28;20484;-71
2023/02/20 03:54:29;;;;;;;7.57;5.40;;;6.60;99.90;;;;;;4980030;28;20964;-69
2023/02/20 03:57:02;;;;;;;7.90;5.10;;;6.60;99.90;;;;;;4975049;28;20969;-70
2023/02/20 03:59:33;;;;;;;6.97;5.10;;;6.60;99.90;;;;;;4968941;28;20505;-69
2023/02/20 04:02:05;;;;;;;5.70;5.10;;;6.60;99.90;;;;;;4969857;28;21564;-70
2023/02/20 04:04:39;;;;;;;7.10;5.90;;;6.60;99.90;;;;;;4978404;28;23521;-70
2023/02/20 04:07:11;;;;;;;7.80;5.70;;;6.60;99.90;;;;;;4971513;28;20492;-70
2023/02/20 04:09:45;;;;;;;8.27;6.30;;;6.70;99.90;;;;;;4980007;28;20986;-69
2023/02/20 04:12:19;;;;;;;7.70;5.30;;;6.70;99.90;;;;;;4975594;28;20503;-72
2023/02/20 04:14:49;;;;;;;7.33;5.80;;;6.70;99.90;;;;;;4970316;28;20475;-69
2023/02/20 04:17:21;;;;;;;6.43;5.80;;;6.70;99.90;;;;;;4984632;28;20520;-70
2023/02/20 04:19:49;;;;;;;7.07;6.20;;;6.80;99.90;;;;;;4982300;28;20496;-69
2023/02/20 04:22:22;;;;;;;6.77;5.47;;;6.70;99.90;;;;;;4982541;28;21003;-70
2023/02/20 04:24:55;;;;;;;7.43;6.30;;;6.70;99.90;;;;;;4989932;28;20984;-70
2023/02/20 04:27:23;;;;;;;7.27;6.03;;;6.70;99.90;;;;;;4984912;28;20503;-70
2023/02/20 04:29:51;;;;;;;7.03;6.10;;;6.70;99.90;;;;;;4988436;28;20515;-70
2023/02/20 04:32:19;;;;;;;7.13;6.30;;;6.70;99.90;;;;;;4987382;28;20474;-69
2023/02/20 04:34:47;;;;;;;8.17;7.37;;;6.70;99.90;;;;;;4979690;28;20488;-71
2023/02/20 04:37:18;;;;;;;9.03;6.47;;;6.70;99.90;;;;;;4977300;28;22503;-71
2023/02/20 04:39:47;;;;;;;9.20;6.97;;;6.70;99.90;;;;;;4980647;28;20571;-69
2023/02/20 04:42:16;;;;;;;7.60;6.80;;;6.70;99.90;;;;;;4968201;28;20501;-71
2023/02/20 04:44:44;;;;;;;7.90;7.07;;;6.70;99.90;;;;;;4975790;28;20493;-70
2023/02/20 04:47:14;;;;;;;8.73;7.10;;;6.70;99.90;;;;;;4969608;28;20489;-70
2023/02/20 04:49:43;;;;;;;7.70;6.90;;;6.70;99.90;;;;;;4975270;28;20501;-69
2023/02/20 04:52:10;;;;;;;7.73;6.90;;;6.70;99.90;;;;;;4980561;28;20469;-69
2023/02/20 04:54:38;;;;;;;8.70;7.37;;;6.70;99.90;;;;;;4981297;28;20513;-69
2023/02/20 04:57:06;;;;;;;7.93;6.90;;;6.70;99.90;;;;;;4966810;28;20488;-70
2023/02/20 04:59:36;;;;;;;8.50;7.63;;;6.70;99.90;;;;;;4973573;28;20505;-70
2023/02/20 05:02:04;;;;;;;8.87;7.47;;;6.70;99.90;;;;;;4974340;28;20480;-69
2023/02/20 05:04:31;;;;;;;8.60;7.70;;;6.70;99.90;;;;;;4978781;28;20497;-68
2023/02/20 05:06:59;;;;;;;7.60;6.80;;;6.70;99.90;;;;;;4968838;28;20493;-69
2023/02/20 05:09:28;;;;;;;8.83;7.93;;;6.80;99.90;;;;;;4971885;28;20484;-69
2023/02/20 05:11:56;;;;;;;8.73;7.83;;;6.70;99.90;;;;;;4973387;28;20477;-69
2023/02/20 05:14:24;;;;;;;9.33;8.43;;;6.70;99.90;;;;;;4976603;28;20485;-68
2023/02/20 05:16:53;;;;;;;9.37;8.47;;;6.80;99.90;;;;;;4978383;28;20493;-69
2023/02/20 05:19:21;;;;;;;9.50;8.30;;;6.80;99.90;;;;;;4972683;28;20493;-70
2023/02/20 05:24:34;;;;;;;9.20;8.30;;;6.80;99.90;;;;;;4976989;28;20543;-69
2023/02/20 05:27:02;;;;;;;10.80;8.73;;;6.80;99.90;;;;;;4967192;28;20593;-69
2023/02/20 05:29:30;;;;;;;10.00;8.87;;;6.80;99.90;;;;;;4976082;28;20574;-68
2023/02/20 05:31:59;;;;;;;9.40;8.30;;;6.80;99.90;;;;;;4968998;28;20709;-69
2023/02/20 05:34:27;;;;;;;10.27;8.40;;;6.80;99.90;;;;;;4973978;28;20468;-69
2023/02/20 05:36:56;;;;;;;10.80;9.20;;;6.80;99.90;;;;;;4967146;28;20501;-69
2023/02/20 05:39:24;;;;;;;11.83;9.30;;;6.80;99.90;;;;;;4974432;28;20519;-71
2023/02/20 05:41:52;;;;;;;9.60;8.60;;;6.80;99.90;;;;;;4977628;28;20497;-70
2023/02/20 05:44:20;;;;;;;11.37;8.80;;;6.80;99.90;;;;;;4978537;28;20505;-69
2023/02/20 05:46:48;;;;;;;12.37;9.40;;;6.80;99.90;;;;;;4969832;28;20500;-69
2023/02/20 05:49:18;;;;;;;9.53;8.53;;;6.90;99.90;;;;;;4973988;28;20497;-69
2023/02/20 05:51:48;;;;;;;9.00;8.10;;;6.90;99.90;;;;;;4966751;28;20469;-68
2023/02/20 05:54:16;;;;;;;10.57;9.47;;;6.80;99.90;;;;;;4976537;28;20473;-71
2023/02/20 05:56:45;;;;;;;12.93;9.80;;;6.80;99.90;;;;;;4976927;28;20851;-72
2023/02/20 05:59:16;;;;;;;11.13;9.93;;;6.80;99.90;;;;;;4970148;28;20493;-70
2023/02/20 06:01:44;;;;;;;10.03;9.03;;;6.90;99.90;;;;;;4976858;28;20468;-75
2023/02/20 06:04:12;;;;;;;11.00;9.67;;;6.90;99.90;;;;;;4970054;28;20501;-72
2023/02/20 06:06:43;;;;;;;13.47;10.07;;;6.90;99.90;;;;;;4963518;28;20537;-70
2023/02/20 06:09:15;;;;;;;11.47;10.20;;;6.90;99.90;;;;;;4968796;28;20484;-71
2023/02/20 06:11:49;;;;;;;11.10;9.60;;;6.90;99.90;;;;;;4965759;28;20480;-70
2023/02/20 06:14:18;;;;;;;10.67;9.57;;;6.90;99.90;;;;;;4957085;28;20545;-69
2023/02/20 06:16:46;;;;;;;12.70;10.47;;;6.90;99.90;;;;;;4978341;28;20489;-71
2023/02/20 06:19:21;;;;;;;11.33;10.13;;;6.90;99.90;;;;;;4980520;28;20493;-69
2023/02/20 06:21:52;;;;;;;11.70;10.50;;;6.90;99.90;;;;;;4980625;28;20469;-69
2023/02/20 06:24:21;;;;;;;12.17;10.87;;;6.90;99.90;;;;;;4982313;28;20937;-70
2023/02/20 06:26:49;;;;;;;11.90;10.60;;;6.90;99.90;;;;;;4973830;28;20512;-68
2023/02/20 06:29:17;;;;;;;11.87;10.00;;;6.90;99.90;;;;;;4972931;28;20494;-70
2023/02/20 06:31:45;;;;;;;12.93;10.53;;;6.90;99.90;;;;;;4963305;28;20598;-69
2023/02/20 06:34:14;;;;;;;12.37;10.57;;;6.90;99.90;;;;;;4967493;28;20567;-69
2023/02/20 06:36:42;;;;;;;13.77;11.37;;;6.90;99.90;;;;;;4969732;28;20501;-69
2023/02/20 06:39:13;;;;;;;13.23;11.70;;;6.90;99.90;;;;;;4965180;28;20504;-69
2023/02/20 06:41:41;;;;;;;13.27;11.40;;;6.90;99.90;;;;;;4971703;28;20560;-69
2023/02/20 06:44:09;;;;;;;12.10;10.57;;;6.90;99.90;;;;;;4974798;28;20584;-69
2023/02/20 06:46:37;;;;;;;14.50;11.00;;;7.00;99.90;;;;;;4973009;28;20485;-69
2023/02/20 06:49:05;;;;;;;12.23;10.93;;;7.00;99.90;;;;;;4971727;28;20497;-69
2023/02/20 06:51:35;;;;;;;13.87;12.10;;;7.00;99.90;;;;;;4979867;28;21063;-69
2023/02/20 06:54:04;;;;;;;13.77;11.33;;;7.10;99.90;;;;;;4973349;28;20496;-70
2023/02/20 06:56:35;;;;;;;14.13;12.03;;;7.10;99.90;;;;;;4970330;28;20516;-69
2023/02/20 06:59:05;;;;;;;12.70;11.40;;;7.10;99.90;;;;;;4972478;28;20580;-69
2023/02/20 07:01:39;;;;;;;13.80;11.57;;;7.20;99.90;;;;;;4974284;28;20474;-70
2023/02/20 07:04:14;;;;;;;15.23;12.17;;;7.20;99.90;;;;;;4970773;28;20947;-70
2023/02/20 07:06:42;;;;;;;13.90;12.50;;;7.20;99.90;;;;;;4982753;28;20484;-68
2023/02/20 07:09:10;;;;;;;16.50;13.90;;;7.20;99.90;;;;;;4980091;28;20496;-68
2023/02/20 07:11:40;;;;;;;15.17;12.87;;;7.20;99.90;;;;;;4984402;28;20496;-68
2023/02/20 07:14:08;;;;;;;15.40;13.43;;;7.20;99.90;;;;;;4985054;28;20480;-68
2023/02/20 07:16:36;;;;;;;15.20;12.90;;;7.20;99.90;;;;;;4984547;28;20504;-69
2023/02/20 07:19:04;;;;;;;13.97;12.47;;;7.30;99.90;;;;;;4984054;28;20555;-69
2023/02/20 07:21:32;;;;;;;14.77;12.60;;;7.30;99.90;;;;;;4985534;28;20963;-70
2023/02/20 07:24:00;;;;;;;15.03;13.43;;;7.30;99.90;;;;;;4982208;28;20469;-69
2023/02/20 07:26:30;;;;;;;19.37;14.20;;;7.40;99.90;;;;;;4986452;28;20477;-69
2023/02/20 07:29:00;;;;;;;16.30;13.63;;;7.40;99.90;;;;;;4984457;28;20493;-70
2023/02/20 07:31:28;;;;;;;16.10;14.40;;;7.40;99.90;;;;;;4989814;28;21008;-66
2023/02/20 07:33:57;;;;;;;15.30;13.70;;;7.40;99.90;;;;;;4989538;28;20476;-67
2023/02/20 07:36:25;;;;;;;17.30;14.80;;;7.40;99.90;;;;;;4985533;28;20485;-67
2023/02/20 07:38:54;;;;;;;19.37;14.47;;;7.40;99.90;;;;;;4985516;28;20500;-67
2023/02/20 07:41:23;;;;;;;16.67;14.90;;;7.40;99.90;;;;;;4990684;28;20488;-67
2023/02/20 07:43:51;;;;;;;18.83;15.47;;;7.40;99.90;;;;;;4985352;28;21140;-68
2023/02/20 07:46:20;;;;;;;18.43;15.33;;;7.40;99.90;;;;;;4982726;28;20497;-69
2023/02/20 07:48:48;;;;;;;17.03;15.20;;;7.40;99.90;;;;;;4990049;28;20469;-71
2023/02/20 07:51:17;;;;;;;21.93;17.10;;;7.40;99.90;;;;;;4988201;28;20882;-69
2023/02/20 07:53:48;;;;;;;18.37;16.47;;;7.40;99.90;;;;;;4985402;28;20485;-67
2023/02/20 07:56:16;;;;;;;17.67;15.80;;;7.50;99.90;;;;;;4988192;28;20489;-67
2023/02/20 07:58:44;;;;;;;18.83;16.27;;;7.50;99.90;;;;;;4991004;28;20884;-66
2023/02/20 08:01:12;;;;;;;19.80;16.80;;;7.50;99.90;;;;;;4986967;28;20477;-67
2023/02/20 08:03:41;;;;;;;20.40;17.07;;;7.60;99.90;;;;;;4989157;28;20469;-66
2023/02/20 08:06:10;;;;;;;20.30;16.23;;;7.50;99.90;;;;;;4987090;28;20489;-66
2023/02/20 08:08:38;;;;;;;21.30;17.83;;;7.50;99.90;;;;;;4986776;28;20857;-67
2023/02/20 08:11:06;;;;;;;21.33;18.13;;;7.60;99.90;;;;;;4985199;28;20986;-66
2023/02/20 08:13:37;;;;;;;24.20;18.33;;;7.60;99.90;;;;;;4984965;28;20477;-68
2023/02/20 08:16:05;;;;;;;19.43;17.30;;;7.60;99.90;;;;;;4985225;28;20933;-68
2023/02/20 08:18:33;;;;;;;24.43;19.17;;;7.60;99.90;;;;;;4986960;28;20597;-69
2023/02/20 08:21:03;;;;;;;20.00;17.70;;;7.60;99.90;;;;;;4989231;28;20540;-68
2023/02/20 08:23:31;;;;;;;18.73;16.83;;;7.70;99.90;;;;;;4984220;28;20563;-69
2023/02/20 08:25:59;;;;;;;19.33;17.33;;;7.70;99.90;;;;;;4987709;28;20492;-68
2023/02/20 08:28:27;;;;;;;21.63;18.20;;;7.60;99.90;;;;;;4984994;28;20563;-69
2023/02/20 08:30:55;;;;;;;21.67;18.50;;;7.70;99.90;;;;;;4990166;28;20485;-68
2023/02/20 08:33:23;;;;;;;22.27;18.57;;;7.70;99.90;;;;;;4987156;28;23814;-68
2023/02/20 08:35:52;;;;;;;22.40;17.90;;;7.70;99.90;;;;;;4985377;28;20485;-69
2023/02/20 08:38:29;;;;;;;23.47;18.67;;;7.80;99.90;;;;;;4988458;28;20473;-69
2023/02/20 08:40:57;;;;;;;21.97;18.33;;;7.80;99.90;;;;;;4985987;28;20585;-67
2023/02/20 08:43:25;;;;;;;21.33;18.50;;;7.80;99.90;;;;;;4987024;28;20473;-70
2023/02/20 08:45:55;;;;;;;21.37;18.10;;;7.80;99.90;;;;;;4989498;28;20982;-68
2023/02/20 08:48:23;;;;;;;22.83;19.47;;;7.80;99.90;;;;;;4987975;28;20493;-68
2023/02/20 08:50:52;;;;;;;20.83;18.40;;;7.80;99.90;;;;;;4986038;28;20527;-67
2023/02/20 08:53:20;;;;;;;19.63;17.53;;;7.80;99.90;;;;;;4989623;28;20488;-68
2023/02/20 08:55:50;;;;;;;24.27;18.57;;;7.80;99.90;;;;;;4989034;28;20572;-68
2023/02/20 08:58:20;;;;;;;21.40;18.03;;;7.80;99.90;;;;;;4988953;28;20525;-68
2023/02/20 09:00:49;;;;;;;22.77;19.17;;;7.90;99.90;;;;;;4987196;28;20492;-69
2023/02/20 09:03:17;;;;;;;21.57;18.90;;;7.90;99.90;;;;;;4983943;28;20470;-70
2023/02/20 09:05:45;;;;;;;21.50;17.67;;;7.90;99.90;;;;;;4985433;28;20503;-68
2023/02/20 09:08:13;;;;;;;21.27;18.23;;;7.90;99.90;;;;;;4984082;28;20473;-68
2023/02/20 09:10:41;;;;;;;25.37;18.90;;;8.00;99.90;;;;;;4989454;28;20496;-68
2023/02/20 09:13:11;;;;;;;22.30;18.47;;;8.00;99.90;;;;;;4985661;28;20469;-69
2023/02/20 09:15:40;;;;;;;21.33;17.60;;;8.00;99.90;;;;;;4984036;28;20572;-69
2023/02/20 09:18:11;;;;;;;26.63;18.43;;;8.00;99.90;;;;;;4985587;28;20556;-68
2023/02/20 09:20:39;;;;;;;21.23;17.23;;;8.00;99.90;;;;;;4988172;28;20500;-69
2023/02/20 09:23:08;;;;;;;25.03;19.00;;;8.00;99.90;;;;;;4986249;28;20478;-70
2023/02/20 09:25:37;;;;;;;21.90;17.70;;;8.10;99.90;;;;;;4973881;28;20504;-69
2023/02/20 09:28:05;;;;;;;27.53;18.30;;;8.10;99.90;;;;;;4984493;28;20473;-69
2023/02/20 09:30:34;;;;;;;21.47;17.20;;;8.10;99.90;;;;;;4986145;28;21003;-70
2023/02/20 09:33:02;;;;;;;24.33;17.13;;;8.00;99.90;;;;;;4989972;28;20497;-69
2023/02/20 09:35:31;;;;;;;22.20;16.53;;;8.10;99.90;;;;;;4983640;28;20561;-70
2023/02/20 09:38:00;;;;;;;20.90;17.27;;;8.10;99.90;;;;;;4986079;28;20980;-69
2023/02/20 09:40:31;;;;;;;26.07;18.67;;;8.10;99.90;;;;;;4985777;28;20533;-69
2023/02/20 09:43:24;;;;;;;23.63;17.70;;;8.20;99.90;;;;;;4979922;28;20480;-69
2023/02/20 09:46:02;;;;;;;20.73;18.53;;;8.20;99.90;;;;;;4963927;28;20494;-69
2023/02/20 09:48:42;;;;;;;22.00;18.17;;;8.20;99.90;;;;;;4982632;28;20838;-68
2023/02/20 09:51:14;;;;;;;25.70;18.27;;;8.20;99.90;;;;;;4982984;28;20855;-69
2023/02/20 09:53:52;;;;;;;25.80;18.40;;;8.20;99.90;;;;;;4984150;28;20480;-69
2023/02/20 09:56:22;;;;;;;24.47;16.83;;;8.20;99.90;;;;;;4986616;28;20489;-69
2023/02/20 09:58:58;;;;;;;21.07;17.37;;;8.30;99.90;;;;;;4983210;28;20474;-70
2023/02/20 10:01:29;;;;;;;23.80;16.83;;;8.30;99.90;;;;;;4982470;28;20484;-69
2023/02/20 10:03:59;;;;;;;24.60;17.53;;;8.30;99.90;;;;;;4982858;28;20833;-69
2023/02/20 10:06:33;;;;;;;22.50;17.50;;;8.30;99.90;;;;;;4985862;28;20485;-68
2023/02/20 10:09:03;;;;;;;21.90;17.03;;;8.30;99.90;;;;;;4985530;28;20492;-68
2023/02/20 10:11:43;;;;;;;19.83;14.90;;;8.40;99.90;;;;;;4983321;28;20591;-68
2023/02/20 10:14:30;;;;;;;22.00;16.03;;;8.40;99.90;;;;;;4988834;28;20480;-68
2023/02/20 10:17:07;;;;;;;21.60;16.73;;;8.40;99.90;;;;;;4980617;28;20500;-69
2023/02/20 10:19:45;;;;;;;23.50;14.57;;;8.50;99.90;;;;;;4986748;28;20481;-68
2023/02/20 10:22:19;;;;;;;16.70;14.87;;;8.50;99.90;;;;;;4982852;28;20468;-67
2023/02/20 10:25:01;;;;;;;21.87;14.60;;;8.50;99.90;;;;;;4984665;28;20469;-67
2023/02/20 10:27:37;;;;;;;22.80;15.03;;;8.50;99.90;;;;;;4977516;28;20496;-68
2023/02/20 10:30:06;;;;;;;17.97;13.80;;;8.60;99.90;;;;;;4985562;28;20501;-68
2023/02/20 10:32:42;;;;;;;18.60;12.93;;;8.50;99.90;;;;;;4985831;28;20505;-68
2023/02/20 10:35:16;;;;;;;17.47;12.03;;;8.60;99.90;;;;;;4979749;28;20475;-68
2023/02/20 10:37:48;;;;;;;14.13;11.97;;;8.60;99.90;;;;;;4987467;28;20597;-70
2023/02/20 10:40:23;;;;;;;14.00;11.77;;;8.70;99.90;;;;;;4982553;28;20500;-68
2023/02/20 10:43:05;;;;;;;13.00;10.83;;;8.70;99.90;;;;;;4986074;28;20473;-67
2023/02/20 10:45:41;;;;;;;15.33;12.20;;;8.80;99.90;;;;;;4987058;28;20473;-68
2023/02/20 10:48:14;;;;;;;16.10;11.00;;;8.80;99.90;;;;;;4987821;28;20480;-68
2023/02/20 10:50:48;;;;;;;10.70;9.60;;;8.80;99.90;;;;;;4984210;28;20908;-68
2023/02/20 10:53:25;;;;;;;13.50;10.67;;;8.80;99.90;;;;;;4987885;28;20469;-68
2023/02/20 10:56:00;;;;;;;16.97;10.20;;;8.90;99.90;;;;;;4983536;28;20492;-68
2023/02/20 10:58:35;;;;;;;15.50;9.47;;;8.90;99.90;;;;;;4985303;28;20484;-67
2023/02/20 11:01:06;;;;;;;14.00;9.13;;;9.00;99.90;;;;;;4984784;28;21195;-67
2023/02/20 11:03:41;;;;;;;13.37;9.50;;;9.00;99.90;;;;;;4984715;28;20473;-68
2023/02/20 11:06:13;;;;;;;10.40;8.90;;;9.00;99.90;;;;;;4983190;28;20496;-68
2023/02/20 11:08:41;;;;;;;14.77;8.33;;;9.10;99.90;;;;;;4982571;28;20505;-68
2023/02/20 11:11:32;;;;;;;9.70;8.70;;;9.10;99.90;;;;;;4987747;28;20469;-69
2023/02/20 11:14:01;;;;;;;12.37;8.63;;;9.10;99.90;;;;;;4979213;28;21093;-68
2023/02/20 11:16:33;;;;;;;11.17;8.60;;;9.10;99.90;;;;;;4983770;28;20488;-68
2023/02/20 11:19:10;;;;;;;10.47;8.27;;;9.00;99.90;;;;;;4981790;28;20485;-70
2023/02/20 11:21:41;;;;;;;10.33;8.43;;;9.00;99.90;;;;;;4984898;28;20477;-69
2023/02/20 11:24:31;;;;;;;10.80;8.47;;;9.00;99.90;;;;;;4984895;28;20480;-68
2023/02/20 11:27:15;;;;;;;11.60;7.70;;;9.10;99.90;;;;;;4981613;28;20493;-68
2023/02/20 11:29:48;;;;;;;8.30;6.73;;;9.10;99.90;;;;;;4974996;28;21026;-68
2023/02/20 11:32:29;;;;;;;10.10;6.80;;;9.20;99.90;;;;;;4979773;28;20469;-69
2023/02/20 11:35:28;;;;;;;12.40;6.93;;;9.20;99.90;;;;;;4980176;28;20561;-69
2023/02/20 11:38:32;;;;;;;8.50;6.43;;;9.30;99.90;;;;;;4985731;28;20874;-69
2023/02/20 11:41:05;;;;;;;9.50;6.80;;;9.30;99.90;;;;;;4978128;28;20499;-69
2023/02/20 11:43:35;;;;;;;8.73;5.90;;;9.30;99.90;;;;;;4980604;28;20481;-69
2023/02/20 11:46:12;;;;;;;11.40;6.50;;;9.30;99.90;;;;;;4983740;28;20987;-69
2023/02/20 11:49:00;;;;;;;7.50;6.40;;;9.40;99.90;;;;;;4985822;28;20501;-69
2023/02/20 11:51:38;;;;;;;6.73;5.27;;;9.40;99.90;;;;;;4978212;28;20477;-69
2023/02/20 11:54:13;;;;;;;6.67;5.97;;;9.50;99.90;;;;;;4983666;28;20477;-68
2023/02/20 11:56:57;;;;;;;6.10;5.50;;;9.50;99.90;;;;;;4981588;28;20990;-69
2023/02/20 11:59:32;;;;;;;8.23;5.70;;;9.50;99.90;;;;;;4980718;28;20493;-70
2023/02/20 12:02:27;;;;;;;6.10;5.57;;;9.60;99.90;;;;;;4983707;28;20469;-68
2023/02/20 12:05:07;;;;;;;6.47;5.80;;;9.70;99.90;;;;;;4984053;28;20503;-69
2023/02/20 12:07:39;;;;;;;7.73;5.47;;;9.70;99.90;;;;;;4980885;28;21019;-69
2023/02/20 12:10:27;;;;;;;7.33;5.87;;;9.70;99.90;;;;;;4975336;28;21032;-69
2023/02/20 12:12:55;;;;;;;8.00;5.73;;;9.70;99.90;;;;;;4988823;28;20473;-68
2023/02/20 12:15:26;;;;;;;6.50;5.50;;;9.80;99.90;;;;;;4982102;28;20472;-69
2023/02/20 12:18:20;;;;;;;6.80;5.17;;;9.80;99.90;;;;;;4982649;28;20489;-67
2023/02/20 12:20:53;;;;;;;7.57;5.10;;;9.80;99.90;;;;;;4976019;28;20499;-69
2023/02/20 12:23:33;;;;;;;7.10;5.13;;;9.80;99.90;;;;;;4975849;28;20469;-69
2023/02/20 12:26:14;;;;;;;6.10;5.50;;;9.80;99.90;;;;;;4972039;28;20488;-68
2023/02/20 12:28:50;;;;;;;6.80;5.30;;;9.80;99.90;;;;;;4980387;28;20604;-67
2023/02/20 12:31:28;;;;;;;5.47;4.97;;;9.80;99.90;;;;;;4978847;28;20803;-69
2023/02/20 12:34:17;;;;;;;6.67;5.40;;;9.90;99.90;;;;;;4981876;28;20481;-68
2023/02/20 12:36:50;;;;;;;8.20;5.10;;;9.90;99.90;;;;;;4968320;28;21054;-69
2023/02/20 12:39:27;;;;;;;7.30;4.90;;;9.90;99.90;;;;;;4978650;28;20504;-70
2023/02/20 12:42:12;;;;;;;6.43;4.63;;;9.90;99.90;;;;;;4978690;28;20468;-70
2023/02/20 12:45:03;;;;;;;4.53;4.13;;;9.90;99.90;;;;;;4985051;28;20472;-69
2023/02/20 12:47:34;;;;;;;5.60;4.30;;;10.00;99.90;;;;;;4984568;28;20491;-68
2023/02/20 12:50:24;;;;;;;5.80;4.00;;;10.00;99.90;;;;;;4973485;28;20501;-68
2023/02/20 12:53:17;;;;;;;6.70;4.33;;;10.00;99.90;;;;;;4987545;28;20978;-68
2023/02/20 12:55:56;;;;;;;8.80;4.57;;;10.00;99.90;;;;;;4987748;28;20478;-68
2023/02/20 12:58:33;;;;;;;7.73;4.40;;;10.00;99.90;;;;;;4985930;28;20473;-69
2023/02/20 13:01:05;;;;;;;5.77;4.73;;;10.00;99.90;;;;;;4986284;28;20533;-70
2023/02/20 13:03:43;;;;;;;6.30;4.50;;;10.00;99.90;;;;;;4988414;28;20465;-70
2023/02/20 13:06:17;;;;;;;6.07;4.20;;;10.00;99.90;;;;;;4987118;28;20498;-68
2023/02/20 13:09:00;;;;;;;6.73;4.03;;;10.00;99.90;;;;;;4979393;28;21012;-69
2023/02/20 13:11:36;;;;;;;5.07;4.07;;;10.00;99.90;;;;;;4984257;28;20481;-69
2023/02/20 13:14:17;;;;;;;6.40;4.00;;;10.00;99.90;;;;;;4984087;28;20473;-69
2023/02/20 13:16:51;;;;;;;7.27;4.30;;;10.00;99.90;;;;;;4979405;28;20913;-70
2023/02/20 13:19:26;;;;;;;13.60;4.80;;;10.00;99.90;;;;;;4983665;28;20870;-70
2023/02/20 13:21:54;;;;;;;8.00;4.40;;;10.10;99.90;;;;;;4989041;28;20473;-68
2023/02/20 13:24:33;;;;;;;6.40;3.97;;;10.00;99.90;;;;;;4984534;28;20478;-69
2023/02/20 13:27:06;;;;;;;6.63;4.60;;;10.00;99.90;;;;;;4989602;28;20539;-70
2023/02/20 13:29:36;;;;;;;7.07;4.60;;;10.00;99.90;;;;;;4978234;28;20485;-69
2023/02/20 13:32:23;;;;;;;6.40;4.07;;;10.00;99.90;;;;;;4980110;28;22457;-69